Pagrindinis puslapis
METAR-TAF:

METAR-TAF

Oro uostai :

Bagdadas, Irakas

platuma: 33-15-45N, ilguma: 44-14-04E, Aukštis: 35 m

Dabartinis oras

Ataskaita buvo paskelbta 47 minutes, ne 21:00 UTC
Vėjas 4 kt iš Šiaurės, svyruoja nuo Šiaurės Vakarų ir Šiaurės/Šiaurės Rytų
Temperatūra 10°C
Drėgmė 100%
Slėgis 1019 hPa
Matomumas: 2300 m
rūkana

METAR: ORBI 152100Z 35004KT 320V020 2300 BR 10/10 Q1019 NOSIG

Laikas: 00:47 (21:47 UTC)

Prognozė

Ataskaita buvo paskelbta 5 valandos ir 47 minutes, ne 16:00 UTC
Prognozė galioja nuo 15 metu 18 UTC su 16 metu 18 UTC
Vėjas 8 kt iš Vakarų/Šiaurės Vakarų
Matomumas: 3000 m
rūkana

TAF: ORBI 151600Z 1518/1618 30008KT 3000 BR

Orai ataskaitas ir orų prognozės (METAR, TAF).

turimą stotys yra geltonos ir raudonos taškus žemėlapyje.

Perkelti pele per norėdami pamatyti stoties vardą.

Tada spustelėkite, norėdami matyti oro stebėjimo ir prognozės.

Norėdami pakeisti žemėlapį: spustelėkite ant žalios mygtukų su juodo kryžiaus žemyn,; žalią mygtuką su brūkšneliu, jei norite nutolinti; arba žalių rodyklių gretimoms žemėlapius.


METAR-TAF: